< Typhoon 198526 1985 Season Typhoon 198601 >
Typhoon 198527 (IRVING)
General InformationTrack Information on Google MapsDetailed Wind InformationList of All Images || Disaster Info.ResourceGoogle EarthGE AnimationAtom FeedGeoJSON
Detalied Best Track (Time Zone = UTC)
Year Month Day Hour Lat. Long. Pressure (hPa) Wind (kt) Class Image Chart
1985 12 17 00 7.3 115.5 1004 0 2 Image Chart
1985 12 17 06 7.5 115.5 1004 0 2 Image Chart
1985 12 17 12 7.8 115.4 1004 0 2 Image Chart
1985 12 17 18 8.0 115.2 1004 0 2 Image Chart
1985 12 18 00 7.8 114.8 1000 0 2 Image Chart
1985 12 18 06 7.8 114.5 998 45 3 Image Chart
1985 12 18 12 7.6 114.3 996 50 4 Image Chart
1985 12 18 18 7.3 114.0 994 50 4 Image Chart
1985 12 19 00 7.5 113.5 994 50 4 Image Chart
1985 12 19 06 7.8 113.5 994 50 4 Image Chart
1985 12 19 12 8.0 113.0 994 50 4 Image Chart
1985 12 19 18 8.2 112.5 994 50 4 Image Chart
1985 12 20 00 8.5 111.8 992 50 4 Image Chart
1985 12 20 06 9.0 110.5 994 50 4 Image Chart
1985 12 20 12 9.0 109.0 1000 50 4 Image Chart
1985 12 20 18 8.6 108.3 1000 45 3 Image Chart
1985 12 21 00 8.2 107.8 1004 0 2 Image Chart
1985 12 21 06 7.8 107.5 1006 0 2 Image Chart
1985 12 21 12 7.5 107.0 1004 0 2 Image Chart
1985 12 21 18 7.0 106.5 1004 0 2 Image Chart
1985 12 22 00 6.5 106.0 1004 0 2 Image Chart
1985 12 22 06 6.0 106.0 1008 0 2 Image Chart
1985 12 22 12 5.0 106.0 1008 0 2 Image Chart
Japan Meteorological Agency Best Track Data | Correction Date : 1992-10-21
< Typhoon 198526 1985 Season Typhoon 198601 >

Help